Inicio METAR Ruta Wind Satelite

Informe Meteorológico

Fecha: 2020/07/02 00:56:21 Local
2020.07.02 05:56 UTC


Estado: VENCIDO
Operación:VFR
Providencia Isla / El Embrujo, Colombia (SKPV) 13-22N 081-21W
2020.07.02 0000 UTC
Wind: Variable at 7 MPH (6 KT):0
Visibility: greater than 7 mile(s):0
Sky conditions: overcast
Temperature: 82 F (28 C)
Dew Point: 77 F (25 C)
Relative Humidity: 83%
Pressure (altimeter): 29.83 in. Hg (1010 hPa)
ob: SKPV 020000Z VRB06KT 9999 FEW017 OVC200 28/25 A2983
cycle: 0

SKPV 012200Z 07006KT 030V160 9999 FEW017 OVC200 29/26 A2983
SKPV 012100Z 09006KT 350V150 9999 FEW017 OVC200 30/25 A2984
SKPV 012000Z VRB04KT 9999 SCT018 OVC200 30/26 A2985
SKPV 011900Z 10006KT 360V180 9999 FEW018 OVC200 30/26 A2988
SKPV 011800Z 11006KT 020V160 9999 FEW017 OVC200 30/27 A2990 REDZ